createdAt,value
2022-08-21T00:01:49.161Z,15.25
2022-08-21T00:04:34.420Z,12.68
2022-08-21T00:07:20.840Z,12.27
2022-08-21T00:10:06.737Z,13.45
2022-08-21T00:12:52.655Z,11.00
2022-08-21T00:15:39.183Z,13.68
2022-08-21T00:18:24.893Z,12.48
2022-08-21T00:21:12.624Z,12.75
2022-08-21T00:23:58.005Z,18.35
2022-08-21T00:26:43.310Z,15.98
2022-08-21T00:29:28.793Z,18.95
2022-08-21T00:32:21.156Z,17.17
2022-08-21T00:35:10.514Z,16.98
2022-08-21T00:37:55.631Z,16.67
2022-08-21T00:40:50.293Z,17.55
2022-08-21T00:43:37.206Z,16.65
2022-08-21T00:46:22.559Z,17.02
2022-08-21T00:49:14.487Z,16.73
2022-08-21T00:52:00.821Z,17.67
2022-08-21T00:54:47.616Z,19.55
2022-08-21T00:57:48.194Z,15.82
2022-08-21T01:00:38.945Z,17.27
2022-08-21T01:03:25.568Z,15.35
2022-08-21T01:06:11.247Z,16.60
2022-08-21T01:08:56.494Z,15.70
2022-08-21T01:11:42.509Z,17.60
2022-08-21T01:14:27.785Z,18.08
2022-08-21T01:17:15.066Z,18.88
2022-08-21T01:20:02.199Z,15.80
2022-08-21T01:22:47.399Z,18.73
2022-08-21T01:25:33.623Z,17.13
2022-08-21T01:28:20.087Z,18.65
2022-08-21T01:31:08.796Z,18.08
2022-08-21T01:33:55.596Z,18.77
2022-08-21T01:36:40.883Z,18.45
2022-08-21T01:39:26.106Z,18.58
2022-08-21T01:42:11.628Z,17.55
2022-08-21T01:44:56.940Z,16.55
2022-08-21T01:47:42.310Z,17.60
2022-08-21T01:50:27.337Z,16.85
2022-08-21T01:53:12.795Z,15.75
2022-08-21T01:55:57.970Z,15.60
2022-08-21T01:58:49.048Z,17.25
2022-08-21T02:01:34.278Z,17.05
2022-08-21T02:04:19.401Z,15.57
2022-08-21T02:07:04.720Z,13.55
2022-08-21T02:09:53.906Z,15.05
2022-08-21T02:12:39.116Z,18.50
2022-08-21T02:15:24.256Z,15.70
2022-08-21T02:18:09.402Z,16.38
2022-08-21T02:20:56.057Z,16.17
2022-08-21T02:23:42.152Z,15.88
2022-08-21T02:26:28.208Z,18.27
2022-08-21T02:29:13.444Z,16.02
2022-08-21T02:31:58.289Z,15.48
2022-08-21T02:34:43.761Z,18.58
2022-08-21T02:37:29.112Z,16.55
2022-08-21T02:40:15.152Z,16.85
2022-08-21T02:43:02.151Z,15.38
2022-08-21T02:45:48.312Z,17.95
2022-08-21T02:48:35.216Z,16.05
2022-08-21T02:51:20.968Z,15.68
2022-08-21T02:54:06.336Z,18.38
2022-08-21T02:56:51.312Z,16.80
2022-08-21T02:59:36.746Z,17.42
2022-08-21T03:02:22.101Z,17.83
2022-08-21T03:05:08.887Z,19.30
2022-08-21T03:07:54.852Z,19.52
2022-08-21T03:10:42.549Z,18.00
2022-08-21T03:13:28.777Z,18.13
2022-08-21T03:16:13.834Z,16.10
2022-08-21T03:18:59.384Z,18.00
2022-08-21T03:21:44.702Z,18.08
2022-08-21T03:24:30.264Z,19.25
2022-08-21T03:27:15.280Z,18.75
2022-08-21T03:30:01.226Z,16.95
2022-08-21T03:32:46.762Z,17.50
2022-08-21T03:35:31.879Z,21.08
2022-08-21T03:38:17.360Z,18.13
2022-08-21T03:41:05.201Z,17.65
2022-08-21T03:43:51.016Z,19.63
2022-08-21T03:46:35.988Z,20.55
2022-08-21T03:49:21.342Z,18.55
2022-08-21T03:52:06.841Z,20.65
2022-08-21T03:54:51.632Z,20.50
2022-08-21T03:57:36.905Z,16.73
2022-08-21T04:00:23.012Z,16.92
2022-08-21T04:03:08.092Z,20.50
2022-08-21T04:05:53.555Z,15.85
2022-08-21T04:08:38.820Z,17.90
2022-08-21T04:11:24.092Z,19.52
2022-08-21T04:14:09.756Z,16.45
2022-08-21T04:16:54.812Z,15.32
2022-08-21T04:19:39.849Z,17.58
2022-08-21T04:22:25.161Z,16.33
2022-08-21T04:25:11.164Z,15.52
2022-08-21T04:27:56.582Z,15.98
2022-08-21T04:30:42.252Z,18.35
2022-08-21T04:33:27.137Z,15.63
2022-08-21T04:36:12.511Z,16.50
2022-08-21T04:38:57.693Z,18.50
2022-08-21T04:41:43.146Z,18.13
2022-08-21T04:44:28.132Z,16.75
2022-08-21T04:47:13.583Z,16.98
2022-08-21T04:49:58.892Z,17.65
2022-08-21T04:52:45.079Z,15.20
2022-08-21T04:55:30.188Z,18.00
2022-08-21T04:58:18.278Z,14.25
2022-08-21T05:01:07.884Z,17.55
2022-08-21T05:03:57.157Z,15.88
2022-08-21T05:06:46.762Z,17.35
2022-08-21T05:09:32.261Z,16.88
2022-08-21T05:12:17.831Z,18.60
2022-08-21T05:15:04.314Z,23.42
2022-08-21T05:17:52.538Z,17.80
2022-08-21T05:20:45.509Z,21.95
2022-08-21T05:23:30.889Z,18.42
2022-08-21T05:26:18.190Z,18.08
2022-08-21T05:29:04.577Z,19.85
2022-08-21T05:31:53.086Z,20.98
2022-08-21T05:34:38.994Z,25.08
2022-08-21T05:37:24.017Z,23.67
2022-08-21T05:40:21.936Z,22.85
2022-08-21T05:43:08.470Z,25.27
2022-08-21T05:45:53.880Z,23.52
2022-08-21T05:48:39.363Z,26.35
2022-08-21T05:51:24.738Z,22.48
2022-08-21T05:54:10.141Z,23.02
2022-08-21T05:56:55.634Z,23.92
2022-08-21T05:59:40.934Z,23.08
2022-08-21T06:02:26.358Z,24.05
2022-08-21T06:05:11.788Z,24.58
2022-08-21T06:08:01.606Z,25.08
2022-08-21T06:10:48.563Z,24.13
2022-08-21T06:13:34.789Z,23.88
2022-08-21T06:16:20.095Z,24.95
2022-08-21T06:19:05.533Z,23.45
2022-08-21T06:21:51.175Z,27.20
2022-08-21T06:24:36.779Z,26.50
2022-08-21T06:27:26.045Z,21.08
2022-08-21T06:30:12.517Z,22.63
2022-08-21T06:32:57.784Z,30.50
2022-08-21T06:35:43.136Z,25.88
2022-08-21T06:38:28.580Z,22.58
2022-08-21T06:41:13.954Z,25.02
2022-08-21T06:43:59.533Z,26.10
2022-08-21T06:46:44.955Z,25.65
2022-08-21T06:49:33.381Z,26.30
2022-08-21T06:52:18.853Z,25.00
2022-08-21T06:55:11.112Z,22.08
2022-08-21T06:57:57.537Z,24.50
2022-08-21T07:00:45.705Z,22.85
2022-08-21T07:03:33.842Z,27.33
2022-08-21T07:06:18.956Z,20.98
2022-08-21T07:09:04.506Z,30.20
2022-08-21T07:11:52.941Z,26.20
2022-08-21T07:14:38.307Z,26.00
2022-08-21T07:17:23.672Z,23.58
2022-08-21T07:20:09.519Z,22.65
2022-08-21T07:22:55.971Z,23.52
2022-08-21T07:25:41.293Z,21.75
2022-08-21T07:28:26.237Z,20.50
2022-08-21T07:31:15.002Z,25.60
2022-08-21T07:34:00.289Z,21.40
2022-08-21T07:36:45.767Z,20.20
2022-08-21T07:39:31.073Z,21.77
2022-08-21T07:42:17.040Z,21.00
2022-08-21T07:45:02.190Z,20.27
2022-08-21T07:47:47.654Z,22.70
2022-08-21T07:50:32.712Z,18.67
2022-08-21T07:53:17.807Z,18.15
2022-08-21T07:56:04.256Z,17.25
2022-08-21T07:58:50.310Z,20.25
2022-08-21T08:01:35.677Z,18.02
2022-08-21T08:04:25.766Z,22.33
2022-08-21T08:07:11.668Z,21.00
2022-08-21T08:09:56.933Z,17.23
2022-08-21T08:12:43.049Z,17.25
2022-08-21T08:15:28.800Z,15.50
2022-08-21T08:18:14.038Z,16.58
2022-08-21T08:20:59.062Z,16.05
2022-08-21T08:23:44.447Z,17.90
2022-08-21T08:26:29.505Z,17.98
2022-08-21T08:29:14.857Z,20.25
2022-08-21T08:32:00.252Z,16.65
2022-08-21T08:34:45.589Z,14.65
2022-08-21T08:37:34.276Z,15.18
2022-08-21T08:40:31.634Z,14.45
2022-08-21T08:43:17.040Z,16.05
2022-08-21T08:46:06.984Z,14.38
2022-08-21T08:48:59.333Z,15.20
2022-08-21T08:51:54.801Z,13.30
2022-08-21T08:54:49.423Z,17.50
2022-08-21T08:57:36.381Z,15.90
2022-08-21T09:00:23.757Z,14.38
2022-08-21T09:03:08.934Z,18.45
2022-08-21T09:06:12.837Z,15.93
2022-08-21T09:09:18.968Z,15.02
2022-08-21T09:12:18.164Z,13.30
2022-08-21T09:15:29.163Z,14.65
2022-08-21T09:18:36.131Z,16.67
2022-08-21T09:21:54.350Z,16.42
2022-08-21T09:24:42.483Z,15.75
2022-08-21T09:27:27.925Z,13.23
2022-08-21T09:30:13.778Z,13.57
2022-08-21T09:32:59.306Z,15.50
2022-08-21T09:35:56.729Z,17.33
2022-08-21T09:38:42.155Z,14.07
2022-08-21T09:41:32.460Z,13.10
2022-08-21T09:44:28.008Z,16.23
2022-08-21T09:47:13.424Z,14.18
2022-08-21T09:50:12.329Z,15.65
2022-08-21T09:53:01.401Z,10.88
2022-08-21T09:56:02.776Z,13.70
2022-08-21T09:58:50.147Z,13.77
2022-08-21T10:01:44.980Z,14.23
2022-08-21T10:04:36.132Z,14.18
2022-08-21T10:07:24.568Z,12.73
2022-08-21T10:10:23.446Z,12.90
2022-08-21T10:13:27.307Z,12.73
2022-08-21T10:16:21.746Z,11.25
2022-08-21T10:19:16.390Z,14.18
2022-08-21T10:22:20.627Z,12.30
2022-08-21T10:25:08.557Z,12.88
2022-08-21T10:28:01.764Z,13.18
2022-08-21T10:30:50.683Z,12.13
2022-08-21T10:34:15.662Z,13.82
2022-08-21T10:37:19.539Z,15.77
2022-08-21T10:40:32.598Z,10.40
2022-08-21T10:43:28.637Z,16.38
2022-08-21T10:46:22.879Z,18.13
2022-08-21T10:49:26.564Z,11.13
2022-08-21T10:52:30.607Z,11.98
2022-08-21T10:55:20.635Z,12.77
2022-08-21T10:58:18.765Z,15.30
2022-08-21T11:01:29.275Z,13.55
2022-08-21T11:04:24.300Z,15.10
2022-08-21T11:07:18.062Z,13.20
2022-08-21T11:10:13.679Z,16.73
2022-08-21T11:13:07.759Z,14.07
2022-08-21T11:16:01.421Z,15.82
2022-08-21T11:18:54.324Z,15.00
2022-08-21T11:21:47.242Z,12.65
2022-08-21T11:24:42.893Z,12.45
2022-08-21T11:27:37.488Z,13.38
2022-08-21T11:30:28.181Z,14.25
2022-08-21T11:33:28.574Z,15.10
2022-08-21T11:36:33.029Z,16.30
2022-08-21T11:39:50.078Z,13.15
2022-08-21T11:42:56.669Z,13.70
2022-08-21T11:45:50.498Z,11.32
2022-08-21T11:49:00.665Z,13.55
2022-08-21T11:52:25.033Z,15.07
2022-08-21T11:55:41.330Z,17.45
2022-08-21T11:58:32.446Z,13.45
2022-08-21T12:01:21.417Z,11.98
2022-08-21T12:04:19.508Z,14.18
2022-08-21T12:07:13.203Z,12.32
2022-08-21T12:10:00.491Z,10.70
2022-08-21T12:12:45.919Z,11.38
2022-08-21T12:15:31.309Z,10.30
2022-08-21T12:18:22.025Z,7.40
2022-08-21T12:21:26.385Z,8.15
2022-08-21T12:24:14.326Z,10.57
2022-08-21T12:27:29.253Z,10.77
2022-08-21T12:30:27.508Z,14.60
2022-08-21T12:33:29.558Z,13.60
2022-08-21T12:36:18.766Z,10.77
2022-08-21T12:39:11.968Z,9.07
2022-08-21T12:42:05.413Z,9.73
2022-08-21T12:44:56.011Z,8.32
2022-08-21T12:47:49.743Z,7.53
2022-08-21T12:50:45.346Z,10.20
2022-08-21T12:53:46.976Z,9.57
2022-08-21T12:56:34.085Z,49.55
2022-08-21T12:59:20.781Z,30.33
2022-08-21T13:02:17.876Z,9.68
2022-08-21T13:05:06.278Z,7.10
2022-08-21T13:07:51.383Z,7.05
2022-08-21T13:10:38.045Z,7.90
2022-08-21T13:13:28.348Z,10.18
2022-08-21T13:16:13.806Z,11.75
2022-08-21T13:19:00.340Z,9.75
2022-08-21T13:21:45.880Z,8.27
2022-08-21T13:24:43.167Z,7.82
2022-08-21T13:27:31.393Z,7.40
2022-08-21T13:30:22.841Z,8.43
2022-08-21T13:33:12.918Z,8.43
2022-08-21T13:36:18.147Z,8.50
2022-08-21T13:39:07.685Z,12.95
2022-08-21T13:41:56.466Z,10.15
2022-08-21T13:44:47.114Z,9.80
2022-08-21T13:47:32.154Z,8.40
2022-08-21T13:50:21.348Z,9.93
2022-08-21T13:53:20.001Z,10.25
2022-08-21T13:56:05.872Z,10.02
2022-08-21T13:58:51.265Z,10.23
2022-08-21T14:01:48.552Z,9.95
2022-08-21T14:04:37.439Z,11.30
2022-08-21T14:07:31.921Z,8.40
2022-08-21T14:10:20.906Z,11.75
2022-08-21T14:13:07.433Z,7.82
2022-08-21T14:15:59.748Z,8.98
2022-08-21T14:18:48.071Z,8.70
2022-08-21T14:21:42.688Z,7.30
2022-08-21T14:24:30.793Z,7.22
2022-08-21T14:27:19.020Z,7.70
2022-08-21T14:30:13.854Z,7.15
2022-08-21T14:32:59.791Z,8.27
2022-08-21T14:35:45.220Z,6.55
2022-08-21T14:38:30.914Z,6.00
2022-08-21T14:41:22.531Z,8.45
2022-08-21T14:44:11.156Z,7.40
2022-08-21T14:46:57.016Z,4.60
2022-08-21T14:49:42.375Z,5.88
2022-08-21T14:52:27.781Z,6.15
2022-08-21T14:55:15.426Z,5.43
2022-08-21T14:58:01.405Z,8.05
2022-08-21T15:00:46.779Z,5.45
2022-08-21T15:03:32.642Z,5.85
2022-08-21T15:06:18.358Z,4.72
2022-08-21T15:09:03.601Z,5.47
2022-08-21T15:11:49.128Z,8.85
2022-08-21T15:14:39.307Z,9.40
2022-08-21T15:17:24.402Z,8.10
2022-08-21T15:20:10.376Z,7.10
2022-08-21T15:22:55.752Z,7.70
2022-08-21T15:25:43.696Z,6.90
2022-08-21T15:28:31.658Z,6.60
2022-08-21T15:31:17.395Z,8.15
2022-08-21T15:34:02.809Z,9.60
2022-08-21T15:36:48.511Z,8.93
2022-08-21T15:39:37.365Z,9.63
2022-08-21T15:42:23.674Z,9.90
2022-08-21T15:45:10.925Z,9.93
2022-08-21T15:47:56.870Z,8.77
2022-08-21T15:50:42.088Z,9.07
2022-08-21T15:53:27.567Z,8.30
2022-08-21T15:56:35.478Z,8.35
2022-08-21T15:59:22.786Z,8.60
2022-08-21T16:02:15.896Z,7.75
2022-08-21T16:05:01.552Z,8.07
2022-08-21T16:07:49.293Z,6.03
2022-08-21T16:10:35.846Z,9.80
2022-08-21T16:13:26.560Z,8.20
2022-08-21T16:16:13.560Z,7.82
2022-08-21T16:18:58.631Z,8.35
2022-08-21T16:21:43.571Z,5.90
2022-08-21T16:24:28.841Z,9.55
2022-08-21T16:27:14.590Z,11.48
2022-08-21T16:30:00.572Z,11.40
2022-08-21T16:32:46.996Z,7.63
2022-08-21T16:35:32.291Z,7.28
2022-08-21T16:38:17.557Z,9.52
2022-08-21T16:41:04.173Z,6.80
2022-08-21T16:43:52.493Z,6.82
2022-08-21T16:46:40.224Z,6.95
2022-08-21T16:49:25.473Z,4.97
2022-08-21T16:52:11.081Z,7.10
2022-08-21T16:54:55.900Z,7.22
2022-08-21T16:57:41.160Z,7.25
2022-08-21T17:00:26.374Z,7.88
2022-08-21T17:03:17.339Z,7.13
2022-08-21T17:06:03.658Z,9.85
2022-08-21T17:08:52.327Z,8.85
2022-08-21T17:11:42.115Z,6.72
2022-08-21T17:14:27.343Z,5.85
2022-08-21T17:17:12.594Z,9.38
2022-08-21T17:19:57.792Z,7.82
2022-08-21T17:22:43.658Z,9.30
2022-08-21T17:25:28.926Z,5.72
2022-08-21T17:28:20.777Z,11.52
2022-08-21T17:31:10.450Z,9.15
2022-08-21T17:33:56.466Z,6.43
2022-08-21T17:36:41.841Z,4.45
2022-08-21T17:39:26.957Z,7.85
2022-08-21T17:42:13.701Z,8.23
2022-08-21T17:44:59.112Z,9.52
2022-08-21T17:47:44.383Z,5.95
2022-08-21T17:50:29.940Z,6.95
2022-08-21T17:53:15.060Z,7.22
2022-08-21T17:56:01.114Z,8.23
2022-08-21T17:58:50.420Z,7.97
2022-08-21T18:01:40.069Z,8.70
2022-08-21T18:04:25.155Z,10.25
2022-08-21T18:07:10.566Z,7.55
2022-08-21T18:10:12.329Z,7.97
2022-08-21T18:12:59.683Z,7.82
2022-08-21T18:15:50.052Z,7.07
2022-08-21T18:18:43.245Z,9.57
2022-08-21T18:21:29.171Z,11.27
2022-08-21T18:24:14.368Z,8.02
2022-08-21T18:26:59.533Z,9.55
2022-08-21T18:29:47.378Z,9.20
2022-08-21T18:32:33.227Z,10.45
2022-08-21T18:35:18.470Z,8.55
2022-08-21T18:38:04.439Z,7.82
2022-08-21T18:40:55.899Z,10.45
2022-08-21T18:43:41.294Z,8.20
2022-08-21T18:46:26.541Z,7.15
2022-08-21T18:49:12.089Z,7.25
2022-08-21T18:51:57.760Z,7.72
2022-08-21T18:54:43.380Z,8.00
2022-08-21T18:57:30.450Z,7.72
2022-08-21T19:00:20.704Z,7.75
2022-08-21T19:03:08.029Z,6.25
2022-08-21T19:05:54.593Z,9.90
2022-08-21T19:08:39.529Z,5.45
2022-08-21T19:11:25.578Z,9.43
2022-08-21T19:14:15.853Z,9.07
2022-08-21T19:17:02.320Z,5.07
2022-08-21T19:19:48.299Z,7.45
2022-08-21T19:22:37.145Z,8.45
2022-08-21T19:25:34.079Z,11.85
2022-08-21T19:28:27.225Z,6.95
2022-08-21T19:31:23.683Z,6.82
2022-08-21T19:34:21.819Z,8.38
2022-08-21T19:37:10.393Z,5.95
2022-08-21T19:39:56.217Z,6.22
2022-08-21T19:42:42.893Z,7.35
2022-08-21T19:45:28.957Z,9.63
2022-08-21T19:48:18.943Z,5.85
2022-08-21T19:51:05.115Z,9.13
2022-08-21T19:53:56.940Z,7.63
2022-08-21T19:56:59.152Z,8.70
2022-08-21T19:59:49.932Z,7.55
2022-08-21T20:02:35.233Z,6.60
2022-08-21T20:05:20.303Z,8.73
2022-08-21T20:08:06.599Z,8.75
2022-08-21T20:11:05.458Z,6.22
2022-08-21T20:13:50.897Z,9.07
2022-08-21T20:16:38.065Z,7.95
2022-08-21T20:19:26.746Z,9.38
2022-08-21T20:22:16.173Z,5.80
2022-08-21T20:25:02.051Z,6.70
2022-08-21T20:27:47.606Z,12.52
2022-08-21T20:30:33.217Z,6.95
2022-08-21T20:33:18.543Z,8.32
2022-08-21T20:36:04.471Z,13.98
2022-08-21T20:38:50.625Z,9.25
2022-08-21T20:41:36.569Z,9.70
2022-08-21T20:44:21.828Z,9.38
2022-08-21T20:50:19.681Z,7.20
2022-08-21T20:53:14.308Z,12.00
2022-08-21T20:56:02.138Z,9.20
2022-08-21T20:58:57.311Z,7.70
2022-08-21T21:01:45.599Z,8.52
2022-08-21T21:04:40.909Z,11.20
2022-08-21T21:07:38.022Z,9.02
2022-08-21T21:10:54.432Z,9.98
2022-08-21T21:13:47.943Z,10.88
2022-08-21T21:16:41.282Z,8.75
2022-08-21T21:19:41.616Z,9.55
2022-08-21T21:22:31.617Z,9.90
2022-08-21T21:25:42.333Z,6.80
2022-08-21T21:28:40.637Z,6.65
2022-08-21T21:31:29.284Z,7.85
2022-08-21T21:34:17.970Z,7.32
2022-08-21T21:37:06.839Z,8.85
2022-08-21T21:39:55.687Z,6.55
2022-08-21T21:42:54.660Z,9.75
2022-08-21T21:45:49.125Z,11.75
2022-08-21T21:49:31.125Z,12.35
2022-08-21T21:52:39.876Z,10.02
2022-08-21T21:55:53.257Z,9.10
2022-08-21T21:59:13.436Z,9.35
2022-08-21T22:02:17.950Z,7.13
2022-08-21T22:05:10.907Z,8.30
2022-08-21T22:08:17.521Z,9.82
2022-08-21T22:11:24.199Z,9.45
2022-08-21T22:14:22.690Z,11.98
2022-08-21T22:17:26.336Z,8.57
2022-08-21T22:20:29.236Z,8.63
2022-08-21T22:23:20.123Z,7.13
2022-08-21T22:26:11.060Z,7.38
2022-08-21T22:28:56.526Z,10.88
2022-08-21T22:31:43.253Z,11.05
2022-08-21T22:34:28.637Z,12.15
2022-08-21T22:37:13.592Z,13.50
2022-08-21T22:40:02.126Z,10.25
2022-08-21T22:43:23.816Z,12.77
2022-08-21T22:49:48.413Z,11.48
2022-08-21T22:52:36.882Z,11.32
2022-08-21T22:55:26.836Z,13.65
2022-08-21T22:58:22.540Z,12.27
2022-08-21T23:01:20.590Z,9.73
2022-08-21T23:04:21.845Z,11.55
2022-08-21T23:07:07.405Z,15.00
2022-08-21T23:09:53.210Z,13.15
2022-08-21T23:12:39.309Z,8.75
2022-08-21T23:15:40.579Z,10.52
2022-08-21T23:18:52.467Z,13.18
2022-08-21T23:22:01.965Z,9.52
2022-08-21T23:25:08.554Z,10.68
2022-08-21T23:28:00.005Z,10.57
2022-08-21T23:30:55.082Z,10.07
2022-08-21T23:34:01.415Z,10.85
2022-08-21T23:37:07.051Z,12.05
2022-08-21T23:40:03.020Z,10.55
2022-08-21T23:42:48.485Z,14.10
2022-08-21T23:45:57.063Z,12.30
2022-08-21T23:49:00.535Z,12.68
2022-08-21T23:52:10.689Z,12.75
2022-08-21T23:55:11.311Z,10.43
2022-08-21T23:58:25.156Z,14.07
